Airport View

Enter AWOS ICAO identifier for current METAR.

ex. KFNL

KTVY 030015Z AUTO 01010KT 10SM CLR 28/06 A3012 RMK AO2

3 Jun 2020 00:18

Frequency: 119.725

Phone: 435-882-6648

Other Area AWOS: KU42 - KSLC - KHIF - KPVU

TAF KSLC 022331Z 0300/0406 34006KT P6SM BKN180 FM030400 16009KT P6SM SCT180 FM031700 33007KT P6SM FEW100 FM040400 15008KT P6SM SCT150 BKN250